sensor_id;sensor_type;location;lat;lon;timestamp;temperature;humidity
45096;DHT22;30858;51.108;8.068;2023-04-15T00:01:03;3.80;99.90
45096;DHT22;30858;51.108;8.068;2023-04-15T00:03:30;3.70;99.90
45096;DHT22;30858;51.108;8.068;2023-04-15T00:05:57;3.60;99.90
45096;DHT22;30858;51.108;8.068;2023-04-15T00:08:22;3.50;99.90
45096;DHT22;30858;51.108;8.068;2023-04-15T00:10:48;3.50;99.90
45096;DHT22;30858;51.108;8.068;2023-04-15T00:13:15;3.50;99.90
45096;DHT22;30858;51.108;8.068;2023-04-15T00:15:40;3.50;99.90
45096;DHT22;30858;51.108;8.068;2023-04-15T00:18:07;3.50;99.90
45096;DHT22;30858;51.108;8.068;2023-04-15T00:20:33;3.40;99.90
45096;DHT22;30858;51.108;8.068;2023-04-15T00:23:00;3.40;99.90
45096;DHT22;30858;51.108;8.068;2023-04-15T00:25:25;3.30;99.90
45096;DHT22;30858;51.108;8.068;2023-04-15T00:27:51;3.20;99.90
45096;DHT22;30858;51.108;8.068;2023-04-15T00:30:17;3.20;99.90
45096;DHT22;30858;51.108;8.068;2023-04-15T00:32:43;3.20;99.90
45096;DHT22;30858;51.108;8.068;2023-04-15T00:35:08;3.20;99.90
45096;DHT22;30858;51.108;8.068;2023-04-15T00:37:34;3.10;99.90
45096;DHT22;30858;51.108;8.068;2023-04-15T00:40:01;3.10;99.90
45096;DHT22;30858;51.108;8.068;2023-04-15T00:42:30;3.00;99.90
45096;DHT22;30858;51.108;8.068;2023-04-15T00:44:55;3.00;99.90
45096;DHT22;30858;51.108;8.068;2023-04-15T00:47:21;3.00;99.90
45096;DHT22;30858;51.108;8.068;2023-04-15T00:49:47;2.90;99.90
45096;DHT22;30858;51.108;8.068;2023-04-15T00:52:13;2.80;99.90
45096;DHT22;30858;51.108;8.068;2023-04-15T00:54:38;2.80;99.90
45096;DHT22;30858;51.108;8.068;2023-04-15T00:57:05;2.80;99.90
45096;DHT22;30858;51.108;8.068;2023-04-15T00:59:32;2.80;99.90
45096;DHT22;30858;51.108;8.068;2023-04-15T01:01:58;2.80;99.90
45096;DHT22;30858;51.108;8.068;2023-04-15T01:04:24;2.70;99.90
45096;DHT22;30858;51.108;8.068;2023-04-15T01:06:49;2.70;99.90
45096;DHT22;30858;51.108;8.068;2023-04-15T01:09:15;2.70;99.90
45096;DHT22;30858;51.108;8.068;2023-04-15T01:11:41;2.60;99.90
45096;DHT22;30858;51.108;8.068;2023-04-15T01:14:08;2.60;99.90
45096;DHT22;30858;51.108;8.068;2023-04-15T01:16:35;2.50;99.90
45096;DHT22;30858;51.108;8.068;2023-04-15T01:19:07;2.50;99.90
45096;DHT22;30858;51.108;8.068;2023-04-15T01:21:36;2.40;99.90
45096;DHT22;30858;51.108;8.068;2023-04-15T01:24:06;2.50;99.90
45096;DHT22;30858;51.108;8.068;2023-04-15T01:26:33;2.40;99.90
45096;DHT22;30858;51.108;8.068;2023-04-15T01:28:58;2.40;99.90
45096;DHT22;30858;51.108;8.068;2023-04-15T01:31:24;2.30;99.90
45096;DHT22;30858;51.108;8.068;2023-04-15T01:33:49;2.30;99.90
45096;DHT22;30858;51.108;8.068;2023-04-15T01:36:15;2.30;99.90
45096;DHT22;30858;51.108;8.068;2023-04-15T01:38:40;2.20;99.90
45096;DHT22;30858;51.108;8.068;2023-04-15T01:41:06;2.10;99.90
45096;DHT22;30858;51.108;8.068;2023-04-15T01:43:33;2.10;99.90
45096;DHT22;30858;51.108;8.068;2023-04-15T01:45:58;2.00;99.90
45096;DHT22;30858;51.108;8.068;2023-04-15T01:48:24;2.00;99.90
45096;DHT22;30858;51.108;8.068;2023-04-15T01:50:53;2.00;99.90
45096;DHT22;30858;51.108;8.068;2023-04-15T01:53:18;1.90;99.90
45096;DHT22;30858;51.108;8.068;2023-04-15T01:55:44;2.00;99.90
45096;DHT22;30858;51.108;8.068;2023-04-15T01:58:10;2.00;99.90
45096;DHT22;30858;51.108;8.068;2023-04-15T02:00:35;1.90;99.90
45096;DHT22;30858;51.108;8.068;2023-04-15T02:03:01;1.90;99.90
45096;DHT22;30858;51.108;8.068;2023-04-15T02:05:26;1.80;99.90
45096;DHT22;30858;51.108;8.068;2023-04-15T02:07:52;1.80;99.90
45096;DHT22;30858;51.108;8.068;2023-04-15T02:10:18;1.80;99.90
45096;DHT22;30858;51.108;8.068;2023-04-15T02:12:43;1.80;99.90
45096;DHT22;30858;51.108;8.068;2023-04-15T02:15:09;1.80;99.90
45096;DHT22;30858;51.108;8.068;2023-04-15T02:17:36;1.80;99.90
45096;DHT22;30858;51.108;8.068;2023-04-15T02:20:02;1.70;99.90
45096;DHT22;30858;51.108;8.068;2023-04-15T02:22:30;1.70;99.90
45096;DHT22;30858;51.108;8.068;2023-04-15T02:24:55;1.60;99.90
45096;DHT22;30858;51.108;8.068;2023-04-15T02:27:21;1.60;99.90
45096;DHT22;30858;51.108;8.068;2023-04-15T02:29:47;1.50;99.90
45096;DHT22;30858;51.108;8.068;2023-04-15T02:32:12;1.50;99.90
45096;DHT22;30858;51.108;8.068;2023-04-15T02:34:39;1.40;99.90
45096;DHT22;30858;51.108;8.068;2023-04-15T02:37:10;1.50;99.90
45096;DHT22;30858;51.108;8.068;2023-04-15T02:39:36;1.50;99.90
45096;DHT22;30858;51.108;8.068;2023-04-15T02:42:02;1.40;99.90
45096;DHT22;30858;51.108;8.068;2023-04-15T02:44:28;1.30;99.90
45096;DHT22;30858;51.108;8.068;2023-04-15T02:46:53;1.30;99.90
45096;DHT22;30858;51.108;8.068;2023-04-15T02:49:23;1.30;99.90
45096;DHT22;30858;51.108;8.068;2023-04-15T02:51:48;1.30;99.90
45096;DHT22;30858;51.108;8.068;2023-04-15T02:54:18;1.20;99.90
45096;DHT22;30858;51.108;8.068;2023-04-15T02:56:44;1.20;99.90
45096;DHT22;30858;51.108;8.068;2023-04-15T02:59:10;1.20;99.90
45096;DHT22;30858;51.108;8.068;2023-04-15T03:01:36;1.20;99.90
45096;DHT22;30858;51.108;8.068;2023-04-15T03:04:02;1.10;99.90
45096;DHT22;30858;51.108;8.068;2023-04-15T03:06:27;1.10;99.90
45096;DHT22;30858;51.108;8.068;2023-04-15T03:08:53;1.10;99.90
45096;DHT22;30858;51.108;8.068;2023-04-15T03:11:19;1.10;99.90
45096;DHT22;30858;51.108;8.068;2023-04-15T03:13:45;1.10;99.90
45096;DHT22;30858;51.108;8.068;2023-04-15T03:16:11;1.10;99.90
45096;DHT22;30858;51.108;8.068;2023-04-15T03:18:37;1.00;99.90
45096;DHT22;30858;51.108;8.068;2023-04-15T03:21:03;1.00;99.90
45096;DHT22;30858;51.108;8.068;2023-04-15T03:23:30;1.00;99.90
45096;DHT22;30858;51.108;8.068;2023-04-15T03:25:55;1.00;99.90
45096;DHT22;30858;51.108;8.068;2023-04-15T03:28:22;1.00;99.90
45096;DHT22;30858;51.108;8.068;2023-04-15T03:30:48;1.00;99.90
45096;DHT22;30858;51.108;8.068;2023-04-15T03:33:13;1.00;99.90
45096;DHT22;30858;51.108;8.068;2023-04-15T03:35:39;1.00;99.90
45096;DHT22;30858;51.108;8.068;2023-04-15T03:38:05;1.00;99.90
45096;DHT22;30858;51.108;8.068;2023-04-15T03:40:30;1.00;99.90
45096;DHT22;30858;51.108;8.068;2023-04-15T03:42:56;1.00;99.90
45096;DHT22;30858;51.108;8.068;2023-04-15T03:45:21;1.00;99.90
45096;DHT22;30858;51.108;8.068;2023-04-15T03:47:47;1.00;99.90
45096;DHT22;30858;51.108;8.068;2023-04-15T03:50:14;0.90;99.90
45096;DHT22;30858;51.108;8.068;2023-04-15T03:52:39;1.00;99.90
45096;DHT22;30858;51.108;8.068;2023-04-15T03:55:05;0.90;99.90
45096;DHT22;30858;51.108;8.068;2023-04-15T03:57:31;0.90;99.90
45096;DHT22;30858;51.108;8.068;2023-04-15T03:59:56;0.90;99.90
45096;DHT22;30858;51.108;8.068;2023-04-15T04:02:22;0.80;99.90
45096;DHT22;30858;51.108;8.068;2023-04-15T04:04:47;0.90;99.90
45096;DHT22;30858;51.108;8.068;2023-04-15T04:07:17;0.90;99.90
45096;DHT22;30858;51.108;8.068;2023-04-15T04:09:42;0.90;99.90
45096;DHT22;30858;51.108;8.068;2023-04-15T04:12:08;0.90;99.90
45096;DHT22;30858;51.108;8.068;2023-04-15T04:14:33;0.90;99.90
45096;DHT22;30858;51.108;8.068;2023-04-15T04:16:59;0.90;99.90
45096;DHT22;30858;51.108;8.068;2023-04-15T04:19:25;0.90;99.90
45096;DHT22;30858;51.108;8.068;2023-04-15T04:21:51;0.90;99.90
45096;DHT22;30858;51.108;8.068;2023-04-15T04:24:16;0.90;99.90
45096;DHT22;30858;51.108;8.068;2023-04-15T04:26:42;1.00;99.90
45096;DHT22;30858;51.108;8.068;2023-04-15T04:29:07;1.00;99.90
45096;DHT22;30858;51.108;8.068;2023-04-15T04:31:33;1.00;99.90
45096;DHT22;30858;51.108;8.068;2023-04-15T04:33:59;1.00;99.90
45096;DHT22;30858;51.108;8.068;2023-04-15T04:36:24;1.00;99.90
45096;DHT22;30858;51.108;8.068;2023-04-15T04:38:50;1.00;99.90
45096;DHT22;30858;51.108;8.068;2023-04-15T04:41:17;1.00;99.90
45096;DHT22;30858;51.108;8.068;2023-04-15T04:43:42;0.90;99.90
45096;DHT22;30858;51.108;8.068;2023-04-15T04:46:08;1.00;99.90
45096;DHT22;30858;51.108;8.068;2023-04-15T04:48:33;1.00;99.90
45096;DHT22;30858;51.108;8.068;2023-04-15T04:50:59;1.00;99.90
45096;DHT22;30858;51.108;8.068;2023-04-15T04:53:24;1.10;99.90
45096;DHT22;30858;51.108;8.068;2023-04-15T04:55:50;1.10;99.90
45096;DHT22;30858;51.108;8.068;2023-04-15T04:58:16;1.10;99.90
45096;DHT22;30858;51.108;8.068;2023-04-15T05:00:42;1.10;99.90
45096;DHT22;30858;51.108;8.068;2023-04-15T05:03:07;1.10;99.90
45096;DHT22;30858;51.108;8.068;2023-04-15T05:05:33;1.10;99.90
45096;DHT22;30858;51.108;8.068;2023-04-15T05:08:00;1.20;99.90
45096;DHT22;30858;51.108;8.068;2023-04-15T05:10:25;1.20;99.90
45096;DHT22;30858;51.108;8.068;2023-04-15T05:12:51;1.20;99.90
45096;DHT22;30858;51.108;8.068;2023-04-15T05:15:16;1.20;99.90
45096;DHT22;30858;51.108;8.068;2023-04-15T05:17:42;1.30;99.90
45096;DHT22;30858;51.108;8.068;2023-04-15T05:20:08;1.30;99.90
45096;DHT22;30858;51.108;8.068;2023-04-15T05:22:34;1.30;99.90
45096;DHT22;30858;51.108;8.068;2023-04-15T05:24:59;1.40;99.90
45096;DHT22;30858;51.108;8.068;2023-04-15T05:27:25;1.40;99.90
45096;DHT22;30858;51.108;8.068;2023-04-15T05:29:50;1.50;99.90
45096;DHT22;30858;51.108;8.068;2023-04-15T05:32:16;1.60;99.90
45096;DHT22;30858;51.108;8.068;2023-04-15T05:34:42;1.60;99.90
45096;DHT22;30858;51.108;8.068;2023-04-15T05:37:07;1.60;99.90
45096;DHT22;30858;51.108;8.068;2023-04-15T05:39:33;1.70;99.90
45096;DHT22;30858;51.108;8.068;2023-04-15T05:41:58;1.70;99.90
45096;DHT22;30858;51.108;8.068;2023-04-15T05:44:24;1.70;99.90
45096;DHT22;30858;51.108;8.068;2023-04-15T05:46:50;1.80;99.90
45096;DHT22;30858;51.108;8.068;2023-04-15T05:49:16;1.70;99.90
45096;DHT22;30858;51.108;8.068;2023-04-15T05:51:41;1.80;99.90
45096;DHT22;30858;51.108;8.068;2023-04-15T05:54:07;1.90;99.90
45096;DHT22;30858;51.108;8.068;2023-04-15T05:56:32;1.90;99.90
45096;DHT22;30858;51.108;8.068;2023-04-15T05:58:58;2.00;99.90
45096;DHT22;30858;51.108;8.068;2023-04-15T06:01:23;2.00;99.90
45096;DHT22;30858;51.108;8.068;2023-04-15T06:03:49;2.00;99.90
45096;DHT22;30858;51.108;8.068;2023-04-15T06:06:15;2.10;99.90
45096;DHT22;30858;51.108;8.068;2023-04-15T06:08:41;2.20;99.90
45096;DHT22;30858;51.108;8.068;2023-04-15T06:11:06;2.30;99.90
45096;DHT22;30858;51.108;8.068;2023-04-15T06:13:32;2.40;99.90
45096;DHT22;30858;51.108;8.068;2023-04-15T06:15:58;2.50;99.90
45096;DHT22;30858;51.108;8.068;2023-04-15T06:18:24;2.60;99.90
45096;DHT22;30858;51.108;8.068;2023-04-15T06:20:50;2.70;99.90
45096;DHT22;30858;51.108;8.068;2023-04-15T06:23:15;2.70;99.90
45096;DHT22;30858;51.108;8.068;2023-04-15T06:25:41;2.80;99.90
45096;DHT22;30858;51.108;8.068;2023-04-15T06:28:07;2.90;99.90
45096;DHT22;30858;51.108;8.068;2023-04-15T06:30:32;3.00;99.90
45096;DHT22;30858;51.108;8.068;2023-04-15T06:32:58;3.10;99.90
45096;DHT22;30858;51.108;8.068;2023-04-15T06:35:24;3.20;99.90
45096;DHT22;30858;51.108;8.068;2023-04-15T06:37:49;3.40;99.90
45096;DHT22;30858;51.108;8.068;2023-04-15T06:40:15;3.30;99.90
45096;DHT22;30858;51.108;8.068;2023-04-15T06:42:41;3.40;99.90
45096;DHT22;30858;51.108;8.068;2023-04-15T06:45:07;3.50;99.90
45096;DHT22;30858;51.108;8.068;2023-04-15T06:47:33;3.70;99.90
45096;DHT22;30858;51.108;8.068;2023-04-15T06:49:58;3.80;99.90
45096;DHT22;30858;51.108;8.068;2023-04-15T06:52:24;3.90;99.90
45096;DHT22;30858;51.108;8.068;2023-04-15T06:54:49;4.10;99.90
45096;DHT22;30858;51.108;8.068;2023-04-15T06:57:15;4.20;99.90
45096;DHT22;30858;51.108;8.068;2023-04-15T06:59:40;4.40;99.90
45096;DHT22;30858;51.108;8.068;2023-04-15T07:02:08;4.50;99.90
45096;DHT22;30858;51.108;8.068;2023-04-15T07:04:35;4.60;99.90
45096;DHT22;30858;51.108;8.068;2023-04-15T07:07:01;4.70;99.90
45096;DHT22;30858;51.108;8.068;2023-04-15T07:09:26;4.80;99.90
45096;DHT22;30858;51.108;8.068;2023-04-15T07:11:52;5.10;99.90
45096;DHT22;30858;51.108;8.068;2023-04-15T07:14:17;5.20;99.90
45096;DHT22;30858;51.108;8.068;2023-04-15T07:16:43;5.40;99.90
45096;DHT22;30858;51.108;8.068;2023-04-15T07:19:08;5.60;99.90
45096;DHT22;30858;51.108;8.068;2023-04-15T07:21:34;5.80;99.90
45096;DHT22;30858;51.108;8.068;2023-04-15T07:24:00;5.90;99.90
45096;DHT22;30858;51.108;8.068;2023-04-15T07:26:25;6.00;99.90
45096;DHT22;30858;51.108;8.068;2023-04-15T07:28:51;5.90;99.90
45096;DHT22;30858;51.108;8.068;2023-04-15T07:31:16;6.00;99.90
45096;DHT22;30858;51.108;8.068;2023-04-15T07:33:42;6.00;99.90
45096;DHT22;30858;51.108;8.068;2023-04-15T07:36:08;6.20;99.90
45096;DHT22;30858;51.108;8.068;2023-04-15T07:38:33;6.30;99.90
45096;DHT22;30858;51.108;8.068;2023-04-15T07:40:59;6.40;99.90
45096;DHT22;30858;51.108;8.068;2023-04-15T07:43:24;6.50;99.90
45096;DHT22;30858;51.108;8.068;2023-04-15T07:45:50;6.60;99.90
45096;DHT22;30858;51.108;8.068;2023-04-15T07:48:15;6.70;99.90
45096;DHT22;30858;51.108;8.068;2023-04-15T07:50:41;6.80;99.90
45096;DHT22;30858;51.108;8.068;2023-04-15T07:53:07;6.90;99.90
45096;DHT22;30858;51.108;8.068;2023-04-15T07:55:32;7.00;99.90
45096;DHT22;30858;51.108;8.068;2023-04-15T07:57:58;7.20;99.90
45096;DHT22;30858;51.108;8.068;2023-04-15T08:00:23;7.30;99.90
45096;DHT22;30858;51.108;8.068;2023-04-15T08:02:49;7.50;99.90
45096;DHT22;30858;51.108;8.068;2023-04-15T08:05:17;7.80;99.90
45096;DHT22;30858;51.108;8.068;2023-04-15T08:07:42;8.10;99.90
45096;DHT22;30858;51.108;8.068;2023-04-15T08:10:08;8.00;99.90
45096;DHT22;30858;51.108;8.068;2023-04-15T08:12:34;8.30;99.90
45096;DHT22;30858;51.108;8.068;2023-04-15T08:15:00;8.50;99.90
45096;DHT22;30858;51.108;8.068;2023-04-15T08:17:26;8.70;99.90
45096;DHT22;30858;51.108;8.068;2023-04-15T08:19:52;8.80;99.90
45096;DHT22;30858;51.108;8.068;2023-04-15T08:22:18;8.70;99.90
45096;DHT22;30858;51.108;8.068;2023-04-15T08:24:44;8.70;99.90
45096;DHT22;30858;51.108;8.068;2023-04-15T08:27:09;8.80;99.90
45096;DHT22;30858;51.108;8.068;2023-04-15T08:29:35;8.80;99.90
45096;DHT22;30858;51.108;8.068;2023-04-15T08:32:01;8.70;99.90
45096;DHT22;30858;51.108;8.068;2023-04-15T08:34:28;8.70;99.90
45096;DHT22;30858;51.108;8.068;2023-04-15T08:36:53;8.80;99.90
45096;DHT22;30858;51.108;8.068;2023-04-15T08:39:19;8.90;99.90
45096;DHT22;30858;51.108;8.068;2023-04-15T08:41:46;9.00;99.90
45096;DHT22;30858;51.108;8.068;2023-04-15T08:44:14;9.10;99.90
45096;DHT22;30858;51.108;8.068;2023-04-15T08:46:41;9.10;99.90
45096;DHT22;30858;51.108;8.068;2023-04-15T08:49:10;9.20;99.90
45096;DHT22;30858;51.108;8.068;2023-04-15T08:51:41;8.90;99.90
45096;DHT22;30858;51.108;8.068;2023-04-15T08:54:10;8.90;99.90
45096;DHT22;30858;51.108;8.068;2023-04-15T08:56:37;8.90;99.90
45096;DHT22;30858;51.108;8.068;2023-04-15T08:59:03;9.10;99.90
45096;DHT22;30858;51.108;8.068;2023-04-15T09:01:30;9.20;99.90
45096;DHT22;30858;51.108;8.068;2023-04-15T09:03:56;9.10;99.90
45096;DHT22;30858;51.108;8.068;2023-04-15T09:06:23;9.20;99.90
45096;DHT22;30858;51.108;8.068;2023-04-15T09:08:50;9.00;99.90
45096;DHT22;30858;51.108;8.068;2023-04-15T09:11:16;8.80;99.90
45096;DHT22;30858;51.108;8.068;2023-04-15T09:13:44;8.90;99.90
45096;DHT22;30858;51.108;8.068;2023-04-15T09:16:12;9.00;99.90
45096;DHT22;30858;51.108;8.068;2023-04-15T09:18:38;9.10;99.90
45096;DHT22;30858;51.108;8.068;2023-04-15T09:21:08;9.10;99.90
45096;DHT22;30858;51.108;8.068;2023-04-15T09:23:36;9.00;99.90
45096;DHT22;30858;51.108;8.068;2023-04-15T09:26:03;8.90;99.90
45096;DHT22;30858;51.108;8.068;2023-04-15T09:28:29;8.70;99.90
45096;DHT22;30858;51.108;8.068;2023-04-15T09:30:58;8.70;99.90
45096;DHT22;30858;51.108;8.068;2023-04-15T09:33:26;8.80;99.90
45096;DHT22;30858;51.108;8.068;2023-04-15T09:36:02;8.80;99.90
45096;DHT22;30858;51.108;8.068;2023-04-15T09:38:29;8.60;99.90
45096;DHT22;30858;51.108;8.068;2023-04-15T09:40:55;8.70;99.90
45096;DHT22;30858;51.108;8.068;2023-04-15T09:43:21;8.80;99.90
45096;DHT22;30858;51.108;8.068;2023-04-15T09:45:49;8.80;99.90
45096;DHT22;30858;51.108;8.068;2023-04-15T09:48:22;8.90;99.90
45096;DHT22;30858;51.108;8.068;2023-04-15T09:50:48;9.00;99.90
45096;DHT22;30858;51.108;8.068;2023-04-15T09:53:19;9.10;99.90
45096;DHT22;30858;51.108;8.068;2023-04-15T09:55:53;9.20;99.90
45096;DHT22;30858;51.108;8.068;2023-04-15T09:58:21;9.30;99.90
45096;DHT22;30858;51.108;8.068;2023-04-15T10:00:48;9.10;99.90
45096;DHT22;30858;51.108;8.068;2023-04-15T10:03:26;8.90;99.90
45096;DHT22;30858;51.108;8.068;2023-04-15T10:05:53;8.90;99.90
45096;DHT22;30858;51.108;8.068;2023-04-15T10:08:25;8.80;99.90
45096;DHT22;30858;51.108;8.068;2023-04-15T10:10:52;8.80;99.90
45096;DHT22;30858;51.108;8.068;2023-04-15T10:13:23;8.80;99.90
45096;DHT22;30858;51.108;8.068;2023-04-15T10:15:56;8.80;99.90
45096;DHT22;30858;51.108;8.068;2023-04-15T10:18:25;8.90;99.90
45096;DHT22;30858;51.108;8.068;2023-04-15T10:20:51;8.90;99.90
45096;DHT22;30858;51.108;8.068;2023-04-15T10:23:17;8.90;99.90
45096;DHT22;30858;51.108;8.068;2023-04-15T10:25:44;8.80;99.90
45096;DHT22;30858;51.108;8.068;2023-04-15T10:28:10;8.80;99.90
45096;DHT22;30858;51.108;8.068;2023-04-15T10:30:36;8.70;99.90
45096;DHT22;30858;51.108;8.068;2023-04-15T10:33:03;8.30;99.90
45096;DHT22;30858;51.108;8.068;2023-04-15T10:35:30;8.30;99.90
45096;DHT22;30858;51.108;8.068;2023-04-15T10:37:57;8.50;99.90
45096;DHT22;30858;51.108;8.068;2023-04-15T10:40:30;8.50;99.90
45096;DHT22;30858;51.108;8.068;2023-04-15T10:43:00;8.50;99.90
45096;DHT22;30858;51.108;8.068;2023-04-15T10:45:34;8.50;99.90
45096;DHT22;30858;51.108;8.068;2023-04-15T10:48:02;8.50;99.90
45096;DHT22;30858;51.108;8.068;2023-04-15T10:50:30;8.40;99.90
45096;DHT22;30858;51.108;8.068;2023-04-15T10:52:56;8.30;99.90
45096;DHT22;30858;51.108;8.068;2023-04-15T10:55:26;8.40;99.90
45096;DHT22;30858;51.108;8.068;2023-04-15T10:57:59;8.40;99.90
45096;DHT22;30858;51.108;8.068;2023-04-15T11:00:29;8.40;99.90
45096;DHT22;30858;51.108;8.068;2023-04-15T11:03:07;8.40;99.90
45096;DHT22;30858;51.108;8.068;2023-04-15T11:05:48;8.40;99.90
45096;DHT22;30858;51.108;8.068;2023-04-15T11:08:13;8.30;99.90
45096;DHT22;30858;51.108;8.068;2023-04-15T11:10:49;8.10;99.90
45096;DHT22;30858;51.108;8.068;2023-04-15T11:13:17;8.00;99.90
45096;DHT22;30858;51.108;8.068;2023-04-15T11:15:47;8.00;99.90
45096;DHT22;30858;51.108;8.068;2023-04-15T11:18:18;8.00;99.90
45096;DHT22;30858;51.108;8.068;2023-04-15T11:20:53;8.00;99.90
45096;DHT22;30858;51.108;8.068;2023-04-15T11:23:35;8.00;99.90
45096;DHT22;30858;51.108;8.068;2023-04-15T11:26:03;8.00;99.90
45096;DHT22;30858;51.108;8.068;2023-04-15T11:28:31;7.90;99.90
45096;DHT22;30858;51.108;8.068;2023-04-15T11:31:02;7.90;99.90
45096;DHT22;30858;51.108;8.068;2023-04-15T11:33:30;7.80;99.90
45096;DHT22;30858;51.108;8.068;2023-04-15T11:35:55;7.80;99.90
45096;DHT22;30858;51.108;8.068;2023-04-15T11:38:21;7.70;99.90
45096;DHT22;30858;51.108;8.068;2023-04-15T11:40:47;7.80;99.90
45096;DHT22;30858;51.108;8.068;2023-04-15T11:43:17;7.80;99.90
45096;DHT22;30858;51.108;8.068;2023-04-15T11:45:54;7.80;99.90
45096;DHT22;30858;51.108;8.068;2023-04-15T11:48:33;7.60;99.90
45096;DHT22;30858;51.108;8.068;2023-04-15T11:51:01;7.70;99.90
45096;DHT22;30858;51.108;8.068;2023-04-15T11:53:44;7.80;99.90
45096;DHT22;30858;51.108;8.068;2023-04-15T11:56:20;7.70;99.90
45096;DHT22;30858;51.108;8.068;2023-04-15T11:58:47;7.70;99.90
45096;DHT22;30858;51.108;8.068;2023-04-15T12:01:14;7.80;99.90
45096;DHT22;30858;51.108;8.068;2023-04-15T12:03:42;7.90;99.90
45096;DHT22;30858;51.108;8.068;2023-04-15T12:06:18;7.90;99.90
45096;DHT22;30858;51.108;8.068;2023-04-15T12:11:39;7.90;99.90
45096;DHT22;30858;51.108;8.068;2023-04-15T12:14:22;7.80;99.90
45096;DHT22;30858;51.108;8.068;2023-04-15T12:16:53;7.80;99.90
45096;DHT22;30858;51.108;8.068;2023-04-15T12:19:24;7.80;99.90
45096;DHT22;30858;51.108;8.068;2023-04-15T12:21:53;7.80;99.90
45096;DHT22;30858;51.108;8.068;2023-04-15T12:24:20;7.90;99.90
45096;DHT22;30858;51.108;8.068;2023-04-15T12:26:49;7.90;99.90
45096;DHT22;30858;51.108;8.068;2023-04-15T12:29:16;7.90;99.90
45096;DHT22;30858;51.108;8.068;2023-04-15T12:31:55;8.00;99.90
45096;DHT22;30858;51.108;8.068;2023-04-15T12:34:29;8.00;99.90
45096;DHT22;30858;51.108;8.068;2023-04-15T12:36:55;8.00;99.90
45096;DHT22;30858;51.108;8.068;2023-04-15T12:39:26;8.00;99.90
45096;DHT22;30858;51.108;8.068;2023-04-15T12:41:53;8.00;99.90
45096;DHT22;30858;51.108;8.068;2023-04-15T12:44:19;8.00;99.90
45096;DHT22;30858;51.108;8.068;2023-04-15T12:46:45;8.10;99.90
45096;DHT22;30858;51.108;8.068;2023-04-15T12:49:11;8.10;99.90
45096;DHT22;30858;51.108;8.068;2023-04-15T12:51:39;8.00;99.90
45096;DHT22;30858;51.108;8.068;2023-04-15T12:54:04;8.00;99.90
45096;DHT22;30858;51.108;8.068;2023-04-15T12:56:30;8.10;99.90
45096;DHT22;30858;51.108;8.068;2023-04-15T12:58:55;8.10;99.90
45096;DHT22;30858;51.108;8.068;2023-04-15T13:01:21;8.10;99.90
45096;DHT22;30858;51.108;8.068;2023-04-15T13:03:47;8.10;99.90
45096;DHT22;30858;51.108;8.068;2023-04-15T13:06:14;8.20;99.90
45096;DHT22;30858;51.108;8.068;2023-04-15T13:08:40;8.20;99.90
45096;DHT22;30858;51.108;8.068;2023-04-15T13:11:06;8.20;99.90
45096;DHT22;30858;51.108;8.068;2023-04-15T13:13:32;8.10;99.90
45096;DHT22;30858;51.108;8.068;2023-04-15T13:15:58;8.10;99.90
45096;DHT22;30858;51.108;8.068;2023-04-15T13:18:23;8.10;99.90
45096;DHT22;30858;51.108;8.068;2023-04-15T13:20:49;8.10;99.90
45096;DHT22;30858;51.108;8.068;2023-04-15T13:23:15;8.10;99.90
45096;DHT22;30858;51.108;8.068;2023-04-15T13:25:41;8.10;99.90
45096;DHT22;30858;51.108;8.068;2023-04-15T13:28:07;8.10;99.90
45096;DHT22;30858;51.108;8.068;2023-04-15T13:30:32;8.10;99.90
45096;DHT22;30858;51.108;8.068;2023-04-15T13:32:58;8.10;99.90
45096;DHT22;30858;51.108;8.068;2023-04-15T13:35:23;8.10;99.90
45096;DHT22;30858;51.108;8.068;2023-04-15T13:37:49;8.20;99.90
45096;DHT22;30858;51.108;8.068;2023-04-15T13:40:14;8.20;99.90
45096;DHT22;30858;51.108;8.068;2023-04-15T13:42:41;8.10;99.90
45096;DHT22;30858;51.108;8.068;2023-04-15T13:45:07;8.10;99.90
45096;DHT22;30858;51.108;8.068;2023-04-15T13:47:33;8.20;99.90
45096;DHT22;30858;51.108;8.068;2023-04-15T13:49:58;8.10;99.90
45096;DHT22;30858;51.108;8.068;2023-04-15T13:52:24;8.10;99.90
45096;DHT22;30858;51.108;8.068;2023-04-15T13:54:49;8.10;99.90
45096;DHT22;30858;51.108;8.068;2023-04-15T13:57:15;8.00;99.90
45096;DHT22;30858;51.108;8.068;2023-04-15T13:59:40;8.00;99.90
45096;DHT22;30858;51.108;8.068;2023-04-15T14:02:06;8.20;99.90
45096;DHT22;30858;51.108;8.068;2023-04-15T14:04:32;8.20;99.90
45096;DHT22;30858;51.108;8.068;2023-04-15T14:06:57;8.20;99.90
45096;DHT22;30858;51.108;8.068;2023-04-15T14:09:23;8.20;99.90
45096;DHT22;30858;51.108;8.068;2023-04-15T14:11:50;8.20;99.90
45096;DHT22;30858;51.108;8.068;2023-04-15T14:14:15;8.20;99.90
45096;DHT22;30858;51.108;8.068;2023-04-15T14:16:41;8.20;99.90
45096;DHT22;30858;51.108;8.068;2023-04-15T14:19:06;8.20;99.90
45096;DHT22;30858;51.108;8.068;2023-04-15T14:21:32;8.20;99.90
45096;DHT22;30858;51.108;8.068;2023-04-15T14:23:58;8.20;99.90
45096;DHT22;30858;51.108;8.068;2023-04-15T14:26:24;8.10;99.90
45096;DHT22;30858;51.108;8.068;2023-04-15T14:28:50;8.10;99.90
45096;DHT22;30858;51.108;8.068;2023-04-15T14:31:15;8.10;99.90
45096;DHT22;30858;51.108;8.068;2023-04-15T14:33:41;8.10;99.90
45096;DHT22;30858;51.108;8.068;2023-04-15T14:36:07;8.10;99.90
45096;DHT22;30858;51.108;8.068;2023-04-15T14:38:34;8.10;99.90
45096;DHT22;30858;51.108;8.068;2023-04-15T14:41:04;8.10;99.90
45096;DHT22;30858;51.108;8.068;2023-04-15T14:43:30;8.10;99.90
45096;DHT22;30858;51.108;8.068;2023-04-15T14:45:56;8.10;99.90
45096;DHT22;30858;51.108;8.068;2023-04-15T14:48:21;8.10;99.90
45096;DHT22;30858;51.108;8.068;2023-04-15T14:50:47;8.10;99.90
45096;DHT22;30858;51.108;8.068;2023-04-15T14:53:12;8.00;99.90
45096;DHT22;30858;51.108;8.068;2023-04-15T14:55:38;8.00;99.90
45096;DHT22;30858;51.108;8.068;2023-04-15T14:58:05;8.10;99.90
45096;DHT22;30858;51.108;8.068;2023-04-15T15:00:31;8.10;99.90
45096;DHT22;30858;51.108;8.068;2023-04-15T15:02:57;8.00;99.90
45096;DHT22;30858;51.108;8.068;2023-04-15T15:05:22;8.00;99.90
45096;DHT22;30858;51.108;8.068;2023-04-15T15:07:48;7.90;99.90
45096;DHT22;30858;51.108;8.068;2023-04-15T15:10:13;8.00;99.90
45096;DHT22;30858;51.108;8.068;2023-04-15T15:12:39;8.00;99.90
45096;DHT22;30858;51.108;8.068;2023-04-15T15:15:05;8.00;99.90
45096;DHT22;30858;51.108;8.068;2023-04-15T15:17:31;8.00;99.90
45096;DHT22;30858;51.108;8.068;2023-04-15T15:19:56;8.00;99.90
45096;DHT22;30858;51.108;8.068;2023-04-15T15:22:22;8.00;99.90
45096;DHT22;30858;51.108;8.068;2023-04-15T15:24:47;8.00;99.90
45096;DHT22;30858;51.108;8.068;2023-04-15T15:27:13;8.00;99.90
45096;DHT22;30858;51.108;8.068;2023-04-15T15:29:38;7.90;99.90
45096;DHT22;30858;51.108;8.068;2023-04-15T15:32:04;7.90;99.90
45096;DHT22;30858;51.108;8.068;2023-04-15T15:34:30;7.90;99.90
45096;DHT22;30858;51.108;8.068;2023-04-15T15:36:55;7.90;99.90
45096;DHT22;30858;51.108;8.068;2023-04-15T15:39:22;7.90;99.90
45096;DHT22;30858;51.108;8.068;2023-04-15T15:41:48;7.90;99.90
45096;DHT22;30858;51.108;8.068;2023-04-15T15:44:14;7.90;99.90